createdAt,value
2023-04-29T00:00:48.000Z,1.8879999999999997
2023-04-29T00:01:48.000Z,2.0767999999999995
2023-04-29T00:02:49.000Z,3.4455999999999993
2023-04-29T00:03:49.000Z,3.5871999999999993
2023-04-29T00:04:49.000Z,2.5488
2023-04-29T00:05:50.000Z,2.7847999999999997
2023-04-29T00:06:50.000Z,3.3511999999999995
2023-04-29T00:07:50.000Z,1.6047999999999998
2023-04-29T00:08:50.000Z,0.6607999999999999
2023-04-29T00:09:51.000Z,3.4455999999999993
2023-04-29T00:10:51.000Z,2.5488
2023-04-29T00:11:51.000Z,1.18
2023-04-29T00:12:52.000Z,1.6991999999999998
2023-04-29T00:13:52.000Z,1.5104
2023-04-29T00:14:52.000Z,2.7847999999999997
2023-04-29T00:15:52.000Z,0.9439999999999998
2023-04-29T00:16:53.000Z,2.5959999999999996
2023-04-29T00:17:53.000Z,1.416
2023-04-29T00:18:53.000Z,0.8967999999999998
2023-04-29T00:19:54.000Z,0.4719999999999999
2023-04-29T00:20:54.000Z,0.0472
2023-04-29T00:21:54.000Z,0.0472
2023-04-29T00:22:54.000Z,0.0
2023-04-29T00:23:55.000Z,0.0
2023-04-29T00:24:55.000Z,0.0944
2023-04-29T00:25:55.000Z,2.9736
2023-04-29T00:26:56.000Z,2.9263999999999997
2023-04-29T00:27:56.000Z,1.8408
2023-04-29T00:28:56.000Z,1.6520000000000001
2023-04-29T00:29:57.000Z,1.9351999999999998
2023-04-29T00:30:57.000Z,2.0767999999999995
2023-04-29T00:31:57.000Z,1.0856
2023-04-29T00:32:57.000Z,3.4455999999999993
2023-04-29T00:33:58.000Z,1.2744
2023-04-29T00:34:58.000Z,0.6607999999999999
2023-04-29T00:35:58.000Z,1.18
2023-04-29T00:36:59.000Z,1.8408
2023-04-29T00:37:59.000Z,2.3127999999999997
2023-04-29T00:38:59.000Z,4.1064
2023-04-29T00:39:59.000Z,3.5871999999999993
2023-04-29T00:41:00.000Z,3.1624
2023-04-29T00:42:00.000Z,1.6047999999999998
2023-04-29T00:43:00.000Z,0.33039999999999997
2023-04-29T00:44:01.000Z,0.42479999999999996
2023-04-29T00:45:01.000Z,1.6991999999999998
2023-04-29T00:46:01.000Z,1.7464
2023-04-29T00:47:02.000Z,1.8879999999999997
2023-04-29T00:48:02.000Z,1.4631999999999998
2023-04-29T00:49:02.000Z,2.5959999999999996
2023-04-29T00:50:03.000Z,2.6431999999999998
2023-04-29T00:51:03.000Z,0.708
2023-04-29T00:52:03.000Z,1.8408
2023-04-29T00:53:03.000Z,0.9911999999999999
2023-04-29T00:54:04.000Z,0.5191999999999999
2023-04-29T00:55:04.000Z,0.7552
2023-04-29T00:56:04.000Z,1.6520000000000001
2023-04-29T00:57:04.000Z,1.3687999999999998
2023-04-29T00:58:05.000Z,1.8408
2023-04-29T00:59:05.000Z,1.5104
2023-04-29T01:00:05.000Z,3.0679999999999996
2023-04-29T01:01:06.000Z,1.5104
2023-04-29T01:02:06.000Z,1.5576
2023-04-29T01:03:06.000Z,0.28319999999999995
2023-04-29T01:04:06.000Z,1.1327999999999998
2023-04-29T01:05:07.000Z,1.5104
2023-04-29T01:06:07.000Z,0.6136
2023-04-29T01:07:07.000Z,0.0
2023-04-29T01:08:08.000Z,0.0
2023-04-29T01:09:08.000Z,0.6136
2023-04-29T01:10:08.000Z,2.2184
2023-04-29T01:11:09.000Z,1.6047999999999998
2023-04-29T01:12:09.000Z,1.8879999999999997
2023-04-29T01:13:09.000Z,1.3687999999999998
2023-04-29T01:14:09.000Z,1.1327999999999998
2023-04-29T01:15:10.000Z,0.4719999999999999
2023-04-29T01:16:10.000Z,0.0
2023-04-29T01:17:10.000Z,1.9351999999999998
2023-04-29T01:18:11.000Z,0.42479999999999996
2023-04-29T01:19:11.000Z,0.6136
2023-04-29T01:20:11.000Z,1.5576
2023-04-29T01:21:11.000Z,1.6520000000000001
2023-04-29T01:22:12.000Z,0.8023999999999999
2023-04-29T01:23:12.000Z,1.7464
2023-04-29T01:24:12.000Z,1.9351999999999998
2023-04-29T01:25:13.000Z,2.9263999999999997
2023-04-29T01:26:13.000Z,3.7759999999999994
2023-04-29T01:27:13.000Z,4.3896
2023-04-29T01:28:14.000Z,3.8703999999999996
2023-04-29T01:29:14.000Z,3.3511999999999995
2023-04-29T01:30:14.000Z,1.9823999999999997
2023-04-29T01:31:14.000Z,2.832
2023-04-29T01:32:15.000Z,1.7464
2023-04-29T01:33:15.000Z,1.9351999999999998
2023-04-29T01:34:15.000Z,1.5576
2023-04-29T01:35:16.000Z,1.6520000000000001
2023-04-29T01:36:16.000Z,1.2744
2023-04-29T01:37:16.000Z,0.0944
2023-04-29T01:38:16.000Z,0.6136
2023-04-29T01:39:17.000Z,1.8879999999999997
2023-04-29T01:40:17.000Z,0.9439999999999998
2023-04-29T01:41:17.000Z,1.3215999999999999
2023-04-29T01:42:18.000Z,1.5576
2023-04-29T01:43:18.000Z,0.4719999999999999
2023-04-29T01:44:18.000Z,0.8967999999999998
2023-04-29T01:45:19.000Z,1.7935999999999996
2023-04-29T01:46:19.000Z,0.6607999999999999
2023-04-29T01:47:19.000Z,0.7552
2023-04-29T01:48:19.000Z,1.9351999999999998
2023-04-29T01:49:20.000Z,2.8792
2023-04-29T01:50:20.000Z,2.0767999999999995
2023-04-29T01:51:20.000Z,0.0472
2023-04-29T01:52:20.000Z,0.0472
2023-04-29T01:53:21.000Z,0.708
2023-04-29T01:54:21.000Z,1.9351999999999998
2023-04-29T01:55:21.000Z,1.0856
2023-04-29T01:56:22.000Z,3.5871999999999993
2023-04-29T01:57:22.000Z,3.1624
2023-04-29T01:58:22.000Z,3.54
2023-04-29T01:59:23.000Z,0.28319999999999995
2023-04-29T02:00:23.000Z,0.8495999999999999
2023-04-29T02:01:23.000Z,0.7552
2023-04-29T02:02:23.000Z,2.4072
2023-04-29T02:03:24.000Z,0.6607999999999999
2023-04-29T02:04:24.000Z,0.28319999999999995
2023-04-29T02:05:24.000Z,0.8495999999999999
2023-04-29T02:06:24.000Z,0.6607999999999999
2023-04-29T02:07:25.000Z,1.7935999999999996
2023-04-29T02:08:25.000Z,1.2272
2023-04-29T02:09:25.000Z,1.3687999999999998
2023-04-29T02:10:26.000Z,2.7847999999999997
2023-04-29T02:11:26.000Z,2.5488
2023-04-29T02:12:26.000Z,1.8408
2023-04-29T02:13:26.000Z,0.23599999999999996
2023-04-29T02:14:27.000Z,2.7375999999999996
2023-04-29T02:15:27.000Z,1.0383999999999998
2023-04-29T02:16:27.000Z,2.1239999999999997
2023-04-29T02:17:28.000Z,3.54
2023-04-29T02:18:28.000Z,0.6136
2023-04-29T02:19:28.000Z,1.2744
2023-04-29T02:20:29.000Z,0.28319999999999995
2023-04-29T02:21:29.000Z,0.1888
2023-04-29T02:22:29.000Z,0.5663999999999999
2023-04-29T02:23:29.000Z,0.0944
2023-04-29T02:24:30.000Z,0.4719999999999999
2023-04-29T02:25:30.000Z,0.5663999999999999
2023-04-29T02:26:30.000Z,0.1888
2023-04-29T02:27:31.000Z,0.0472
2023-04-29T02:28:31.000Z,0.0472
2023-04-29T02:29:31.000Z,0.0
2023-04-29T02:30:31.000Z,0.23599999999999996
2023-04-29T02:31:32.000Z,2.2184
2023-04-29T02:32:32.000Z,0.7552
2023-04-29T02:33:32.000Z,0.4719999999999999
2023-04-29T02:34:33.000Z,1.5104
2023-04-29T02:35:33.000Z,2.3127999999999997
2023-04-29T02:36:33.000Z,0.6136
2023-04-29T02:37:33.000Z,0.6607999999999999
2023-04-29T02:38:34.000Z,1.18
2023-04-29T02:39:34.000Z,0.7552
2023-04-29T02:40:34.000Z,0.8495999999999999
2023-04-29T02:41:35.000Z,2.5959999999999996
2023-04-29T02:42:35.000Z,0.14159999999999998
2023-04-29T02:43:35.000Z,0.5191999999999999
2023-04-29T02:44:36.000Z,0.0
2023-04-29T02:45:36.000Z,0.5663999999999999
2023-04-29T02:46:36.000Z,1.3687999999999998
2023-04-29T02:47:36.000Z,1.2272
2023-04-29T02:48:37.000Z,1.9351999999999998
2023-04-29T02:49:37.000Z,0.6607999999999999
2023-04-29T02:50:37.000Z,0.8023999999999999
2023-04-29T02:51:38.000Z,0.23599999999999996
2023-04-29T02:52:38.000Z,0.0
2023-04-29T02:53:38.000Z,0.42479999999999996
2023-04-29T02:54:39.000Z,2.4544
2023-04-29T02:55:39.000Z,1.1327999999999998
2023-04-29T02:56:39.000Z,2.0296
2023-04-29T02:57:39.000Z,2.1239999999999997
2023-04-29T02:58:40.000Z,0.0472
2023-04-29T02:59:40.000Z,0.33039999999999997
2023-04-29T03:00:40.000Z,0.0
2023-04-29T03:01:41.000Z,0.3776
2023-04-29T03:02:41.000Z,0.3776
2023-04-29T03:03:41.000Z,0.1888
2023-04-29T03:04:41.000Z,0.0
2023-04-29T03:05:42.000Z,0.3776
2023-04-29T03:06:42.000Z,0.8023999999999999
2023-04-29T03:07:42.000Z,0.8967999999999998
2023-04-29T03:08:43.000Z,0.8495999999999999
2023-04-29T03:09:43.000Z,0.0
2023-04-29T03:10:43.000Z,0.0
2023-04-29T03:11:43.000Z,0.0
2023-04-29T03:12:44.000Z,0.0944
2023-04-29T03:13:44.000Z,0.0944
2023-04-29T03:14:44.000Z,0.0
2023-04-29T03:15:45.000Z,0.0
2023-04-29T03:16:45.000Z,0.0
2023-04-29T03:17:45.000Z,0.0
2023-04-29T03:18:45.000Z,0.0
2023-04-29T03:19:46.000Z,0.0
2023-04-29T03:20:46.000Z,0.0
2023-04-29T03:21:46.000Z,0.0
2023-04-29T03:22:47.000Z,0.0
2023-04-29T03:23:47.000Z,0.5663999999999999
2023-04-29T03:24:47.000Z,0.28319999999999995
2023-04-29T03:25:47.000Z,0.0
2023-04-29T03:26:48.000Z,0.0
2023-04-29T03:27:48.000Z,0.0
2023-04-29T03:28:48.000Z,0.0
2023-04-29T03:29:49.000Z,0.0944
2023-04-29T03:30:49.000Z,0.5663999999999999
2023-04-29T03:31:49.000Z,0.5191999999999999
2023-04-29T03:32:50.000Z,0.14159999999999998
2023-04-29T03:33:50.000Z,0.5191999999999999
2023-04-29T03:34:50.000Z,0.5191999999999999
2023-04-29T03:35:50.000Z,1.5104
2023-04-29T03:36:51.000Z,0.3776
2023-04-29T03:37:51.000Z,0.8023999999999999
2023-04-29T03:38:51.000Z,0.28319999999999995
2023-04-29T03:39:52.000Z,0.0472
2023-04-29T03:40:52.000Z,0.0
2023-04-29T03:41:52.000Z,0.0944
2023-04-29T03:42:52.000Z,0.0
2023-04-29T03:43:53.000Z,0.0
2023-04-29T03:44:53.000Z,0.0
2023-04-29T03:45:53.000Z,0.28319999999999995
2023-04-29T03:46:54.000Z,0.0
2023-04-29T03:47:54.000Z,0.9439999999999998
2023-04-29T03:48:54.000Z,1.4631999999999998
2023-04-29T03:49:54.000Z,0.3776
2023-04-29T03:50:55.000Z,0.0
2023-04-29T03:51:55.000Z,0.0
2023-04-29T03:52:55.000Z,0.14159999999999998
2023-04-29T03:53:56.000Z,0.9439999999999998
2023-04-29T03:54:56.000Z,0.0
2023-04-29T03:55:56.000Z,1.416
2023-04-29T03:56:56.000Z,0.0
2023-04-29T03:57:57.000Z,0.0
2023-04-29T03:58:57.000Z,0.0472
2023-04-29T03:59:57.000Z,0.0
2023-04-29T04:00:58.000Z,0.0
2023-04-29T04:01:58.000Z,0.0
2023-04-29T04:02:58.000Z,0.0
2023-04-29T04:03:58.000Z,0.0
2023-04-29T04:04:59.000Z,0.0
2023-04-29T04:05:59.000Z,0.0
2023-04-29T04:06:59.000Z,0.4719999999999999
2023-04-29T04:08:00.000Z,0.0472
2023-04-29T04:09:00.000Z,0.23599999999999996
2023-04-29T04:10:00.000Z,0.708
2023-04-29T04:11:00.000Z,0.0472
2023-04-29T04:12:01.000Z,0.0
2023-04-29T04:13:01.000Z,0.0
2023-04-29T04:14:01.000Z,0.4719999999999999
2023-04-29T04:15:02.000Z,0.0
2023-04-29T04:16:02.000Z,0.0
2023-04-29T04:17:02.000Z,0.0
2023-04-29T04:18:03.000Z,0.0
2023-04-29T04:19:03.000Z,0.0
2023-04-29T04:20:03.000Z,0.28319999999999995
2023-04-29T04:21:03.000Z,0.0
2023-04-29T04:22:04.000Z,0.0
2023-04-29T04:23:04.000Z,0.0
2023-04-29T04:24:04.000Z,0.0472
2023-04-29T04:25:05.000Z,0.0472
2023-04-29T04:26:05.000Z,0.0
2023-04-29T04:27:05.000Z,0.8495999999999999
2023-04-29T04:28:05.000Z,0.5191999999999999
2023-04-29T04:29:06.000Z,0.0944
2023-04-29T04:30:06.000Z,0.5663999999999999
2023-04-29T04:31:06.000Z,0.0472
2023-04-29T04:32:07.000Z,0.0
2023-04-29T04:33:07.000Z,0.23599999999999996
2023-04-29T04:34:07.000Z,0.0944
2023-04-29T04:35:07.000Z,0.0944
2023-04-29T04:36:08.000Z,0.0
2023-04-29T04:37:08.000Z,0.0
2023-04-29T04:38:08.000Z,0.0
2023-04-29T04:39:09.000Z,0.0944
2023-04-29T04:40:09.000Z,0.0472
2023-04-29T04:41:09.000Z,0.0
2023-04-29T04:42:10.000Z,0.0
2023-04-29T04:43:10.000Z,0.0
2023-04-29T04:44:10.000Z,0.0
2023-04-29T04:45:11.000Z,0.0
2023-04-29T04:46:11.000Z,0.0472
2023-04-29T04:47:11.000Z,0.0
2023-04-29T04:48:12.000Z,0.0
2023-04-29T04:49:12.000Z,0.0
2023-04-29T04:50:12.000Z,0.0
2023-04-29T04:51:12.000Z,0.0
2023-04-29T04:52:13.000Z,0.0
2023-04-29T04:53:13.000Z,0.0
2023-04-29T04:54:13.000Z,0.0
2023-04-29T04:55:14.000Z,0.0
2023-04-29T04:56:14.000Z,0.28319999999999995
2023-04-29T04:57:14.000Z,0.0
2023-04-29T04:58:14.000Z,0.28319999999999995
2023-04-29T04:59:15.000Z,0.0944
2023-04-29T05:00:15.000Z,0.0944
2023-04-29T05:01:15.000Z,0.4719999999999999
2023-04-29T05:02:16.000Z,0.0
2023-04-29T05:03:16.000Z,0.8023999999999999
2023-04-29T05:04:16.000Z,0.0472
2023-04-29T05:05:16.000Z,0.0
2023-04-29T05:06:17.000Z,0.4719999999999999
2023-04-29T05:07:17.000Z,0.0944
2023-04-29T05:08:17.000Z,0.0
2023-04-29T05:09:18.000Z,0.28319999999999995
2023-04-29T05:10:18.000Z,0.14159999999999998
2023-04-29T05:11:18.000Z,0.23599999999999996
2023-04-29T05:12:18.000Z,0.0
2023-04-29T05:13:19.000Z,0.0
2023-04-29T05:14:19.000Z,1.1327999999999998
2023-04-29T05:15:19.000Z,1.7935999999999996
2023-04-29T05:16:20.000Z,0.0944
2023-04-29T05:17:20.000Z,0.708
2023-04-29T05:18:20.000Z,0.0472
2023-04-29T05:19:21.000Z,2.0767999999999995
2023-04-29T05:20:21.000Z,0.14159999999999998
2023-04-29T05:21:21.000Z,0.0
2023-04-29T05:22:22.000Z,0.0
2023-04-29T05:23:22.000Z,0.0
2023-04-29T05:24:22.000Z,0.0
2023-04-29T05:25:22.000Z,0.0
2023-04-29T05:26:23.000Z,0.33039999999999997
2023-04-29T05:27:23.000Z,0.7552
2023-04-29T05:28:23.000Z,1.6520000000000001
2023-04-29T05:29:24.000Z,1.3687999999999998
2023-04-29T05:30:24.000Z,0.3776
2023-04-29T05:31:24.000Z,0.0
2023-04-29T05:32:25.000Z,0.6136
2023-04-29T05:33:25.000Z,0.23599999999999996
2023-04-29T05:34:25.000Z,0.23599999999999996
2023-04-29T05:35:26.000Z,0.1888
2023-04-29T05:36:26.000Z,0.23599999999999996
2023-04-29T05:37:26.000Z,0.23599999999999996
2023-04-29T05:38:26.000Z,0.708
2023-04-29T05:39:27.000Z,0.0
2023-04-29T05:40:27.000Z,0.0
2023-04-29T05:41:27.000Z,0.0944
2023-04-29T05:42:28.000Z,0.6607999999999999
2023-04-29T05:43:28.000Z,0.0472
2023-04-29T05:44:28.000Z,1.6991999999999998
2023-04-29T05:45:28.000Z,1.18
2023-04-29T05:46:29.000Z,0.42479999999999996
2023-04-29T05:47:29.000Z,0.23599999999999996
2023-04-29T05:48:29.000Z,2.3127999999999997
2023-04-29T05:49:30.000Z,0.3776
2023-04-29T05:50:30.000Z,0.28319999999999995
2023-04-29T05:51:30.000Z,1.3687999999999998
2023-04-29T05:52:30.000Z,1.2744
2023-04-29T05:53:31.000Z,1.0856
2023-04-29T05:54:31.000Z,0.23599999999999996
2023-04-29T05:55:31.000Z,2.5015999999999994
2023-04-29T05:56:32.000Z,2.5015999999999994
2023-04-29T05:57:32.000Z,1.3687999999999998
2023-04-29T05:58:32.000Z,0.9439999999999998
2023-04-29T05:59:32.000Z,1.7464
2023-04-29T06:00:33.000Z,2.1712
2023-04-29T06:01:33.000Z,2.0767999999999995
2023-04-29T06:02:33.000Z,2.1712
2023-04-29T06:03:34.000Z,0.5663999999999999
2023-04-29T06:04:34.000Z,0.0
2023-04-29T06:05:34.000Z,0.28319999999999995
2023-04-29T06:06:35.000Z,0.14159999999999998
2023-04-29T06:07:35.000Z,0.6136
2023-04-29T06:08:35.000Z,1.1327999999999998
2023-04-29T06:09:36.000Z,0.4719999999999999
2023-04-29T06:10:36.000Z,1.6991999999999998
2023-04-29T06:11:36.000Z,0.9439999999999998
2023-04-29T06:12:36.000Z,0.6607999999999999
2023-04-29T06:13:37.000Z,0.4719999999999999
2023-04-29T06:14:37.000Z,0.8967999999999998
2023-04-29T06:15:37.000Z,0.1888
2023-04-29T06:16:38.000Z,1.1327999999999998
2023-04-29T06:17:38.000Z,0.14159999999999998
2023-04-29T06:18:38.000Z,0.0944
2023-04-29T06:19:39.000Z,0.3776
2023-04-29T06:20:39.000Z,0.0944
2023-04-29T06:21:39.000Z,0.33039999999999997
2023-04-29T06:22:39.000Z,0.0944
2023-04-29T06:23:40.000Z,0.14159999999999998
2023-04-29T06:24:40.000Z,0.23599999999999996
2023-04-29T06:25:40.000Z,0.5191999999999999
2023-04-29T06:26:41.000Z,1.9351999999999998
2023-04-29T06:27:41.000Z,0.8023999999999999
2023-04-29T06:28:41.000Z,0.0472
2023-04-29T06:29:42.000Z,0.6607999999999999
2023-04-29T06:30:42.000Z,0.23599999999999996
2023-04-29T06:31:42.000Z,0.1888
2023-04-29T06:32:42.000Z,0.0944
2023-04-29T06:33:43.000Z,0.3776
2023-04-29T06:34:43.000Z,0.6136
2023-04-29T06:35:43.000Z,1.5104
2023-04-29T06:36:44.000Z,1.18
2023-04-29T06:37:44.000Z,0.8023999999999999
2023-04-29T06:38:44.000Z,1.4631999999999998
2023-04-29T06:39:44.000Z,0.7552
2023-04-29T06:40:45.000Z,2.0296
2023-04-29T06:41:45.000Z,2.2655999999999996
2023-04-29T06:42:45.000Z,2.4072
2023-04-29T06:43:46.000Z,5.380799999999999
2023-04-29T06:44:46.000Z,1.9823999999999997
2023-04-29T06:45:46.000Z,1.2272
2023-04-29T06:46:46.000Z,1.1327999999999998
2023-04-29T06:47:47.000Z,2.5015999999999994
2023-04-29T06:48:47.000Z,4.2951999999999995
2023-04-29T06:49:47.000Z,1.6047999999999998
2023-04-29T06:50:48.000Z,1.7464
2023-04-29T06:51:48.000Z,0.9439999999999998
2023-04-29T06:52:48.000Z,0.6607999999999999
2023-04-29T06:53:48.000Z,2.4072
2023-04-29T06:54:49.000Z,1.5104
2023-04-29T06:55:49.000Z,0.7552
2023-04-29T06:56:49.000Z,1.7464
2023-04-29T06:57:50.000Z,3.3040000000000003
2023-04-29T06:58:50.000Z,0.6136
2023-04-29T06:59:50.000Z,0.8023999999999999
2023-04-29T07:00:50.000Z,1.7935999999999996
2023-04-29T07:01:51.000Z,1.6991999999999998
2023-04-29T07:02:51.000Z,0.9911999999999999
2023-04-29T07:03:51.000Z,1.1327999999999998
2023-04-29T07:04:52.000Z,2.3127999999999997
2023-04-29T07:05:52.000Z,2.1239999999999997
2023-04-29T07:06:52.000Z,1.416
2023-04-29T07:07:53.000Z,2.6431999999999998
2023-04-29T07:08:53.000Z,1.6991999999999998
2023-04-29T07:09:53.000Z,2.5959999999999996
2023-04-29T07:10:53.000Z,1.18
2023-04-29T07:11:54.000Z,1.416
2023-04-29T07:12:54.000Z,3.7759999999999994
2023-04-29T07:13:54.000Z,1.2272
2023-04-29T07:14:55.000Z,3.3040000000000003
2023-04-29T07:15:55.000Z,2.0767999999999995
2023-04-29T07:16:55.000Z,2.36
2023-04-29T07:17:56.000Z,1.416
2023-04-29T07:18:56.000Z,1.2744
2023-04-29T07:19:56.000Z,1.8408
2023-04-29T07:20:56.000Z,2.36
2023-04-29T07:21:57.000Z,2.5959999999999996
2023-04-29T07:22:57.000Z,3.7759999999999994
2023-04-29T07:23:57.000Z,2.9736
2023-04-29T07:24:58.000Z,2.1239999999999997
2023-04-29T07:25:58.000Z,0.8967999999999998
2023-04-29T07:26:58.000Z,1.6991999999999998
2023-04-29T07:27:59.000Z,4.6255999999999995
2023-04-29T07:28:59.000Z,2.5959999999999996
2023-04-29T07:29:59.000Z,1.6047999999999998
2023-04-29T07:30:59.000Z,2.9263999999999997
2023-04-29T07:32:00.000Z,2.8792
2023-04-29T07:33:00.000Z,2.9736
2023-04-29T07:34:00.000Z,3.8232
2023-04-29T07:35:01.000Z,3.1152
2023-04-29T07:36:01.000Z,3.3983999999999996
2023-04-29T07:37:01.000Z,4.9088
2023-04-29T07:38:01.000Z,2.4072
2023-04-29T07:39:02.000Z,1.6047999999999998
2023-04-29T07:40:02.000Z,3.8232
2023-04-29T07:41:02.000Z,2.8792
2023-04-29T07:42:03.000Z,1.9823999999999997
2023-04-29T07:43:03.000Z,1.9351999999999998
2023-04-29T07:44:03.000Z,1.2744
2023-04-29T07:45:04.000Z,1.9351999999999998
2023-04-29T07:46:04.000Z,2.2184
2023-04-29T07:47:04.000Z,2.1712
2023-04-29T07:48:04.000Z,2.36
2023-04-29T07:49:05.000Z,1.6520000000000001
2023-04-29T07:50:05.000Z,1.416
2023-04-29T07:51:05.000Z,1.6991999999999998
2023-04-29T07:52:06.000Z,1.416
2023-04-29T07:53:06.000Z,3.1152
2023-04-29T07:54:06.000Z,3.2095999999999996
2023-04-29T07:55:06.000Z,0.5663999999999999
2023-04-29T07:56:07.000Z,2.832
2023-04-29T07:57:07.000Z,3.2095999999999996
2023-04-29T07:58:07.000Z,2.5015999999999994
2023-04-29T07:59:08.000Z,1.3215999999999999
2023-04-29T08:00:08.000Z,1.8879999999999997
2023-04-29T08:01:08.000Z,2.5015999999999994
2023-04-29T08:02:08.000Z,2.5959999999999996
2023-04-29T08:03:09.000Z,5.380799999999999
2023-04-29T08:04:09.000Z,3.6816
2023-04-29T08:05:09.000Z,5.6168
2023-04-29T08:06:10.000Z,4.8144
2023-04-29T08:07:10.000Z,4.4368
2023-04-29T08:08:10.000Z,1.416
2023-04-29T08:09:11.000Z,5.003199999999999
2023-04-29T08:10:11.000Z,3.7759999999999994
2023-04-29T08:11:11.000Z,1.9823999999999997
2023-04-29T08:12:11.000Z,2.1712
2023-04-29T08:13:12.000Z,4.012
2023-04-29T08:14:12.000Z,4.484
2023-04-29T08:15:12.000Z,2.9736
2023-04-29T08:16:13.000Z,1.7935999999999996
2023-04-29T08:17:13.000Z,2.9263999999999997
2023-04-29T08:18:13.000Z,1.8879999999999997
2023-04-29T08:19:13.000Z,2.5959999999999996
2023-04-29T08:20:14.000Z,2.2184
2023-04-29T08:21:14.000Z,1.7935999999999996
2023-04-29T08:22:14.000Z,5.852799999999999
2023-04-29T08:23:15.000Z,2.9736
2023-04-29T08:24:15.000Z,1.6520000000000001
2023-04-29T08:25:15.000Z,2.8792
2023-04-29T08:26:15.000Z,1.7935999999999996
2023-04-29T08:27:16.000Z,4.72
2023-04-29T08:28:16.000Z,3.9175999999999997
2023-04-29T08:29:16.000Z,1.7464
2023-04-29T08:30:17.000Z,1.5104
2023-04-29T08:31:17.000Z,2.5488
2023-04-29T08:32:17.000Z,2.0296
2023-04-29T08:33:17.000Z,1.9823999999999997
2023-04-29T08:34:18.000Z,2.2655999999999996
2023-04-29T08:35:18.000Z,2.8792
2023-04-29T08:36:18.000Z,2.1712
2023-04-29T08:37:19.000Z,2.7847999999999997
2023-04-29T08:38:19.000Z,2.5488
2023-04-29T08:39:19.000Z,4.578399999999999
2023-04-29T08:40:19.000Z,3.54
2023-04-29T08:41:20.000Z,3.5871999999999993
2023-04-29T08:42:20.000Z,6.843999999999999
2023-04-29T08:43:20.000Z,1.6520000000000001
2023-04-29T08:44:21.000Z,4.1064
2023-04-29T08:45:21.000Z,3.4455999999999993
2023-04-29T08:46:21.000Z,2.2184
2023-04-29T08:47:22.000Z,1.8879999999999997
2023-04-29T08:48:22.000Z,2.1239999999999997
2023-04-29T08:49:22.000Z,3.7287999999999992
2023-04-29T08:50:23.000Z,1.2272
2023-04-29T08:51:23.000Z,3.3040000000000003
2023-04-29T08:52:23.000Z,3.3040000000000003
2023-04-29T08:53:23.000Z,0.42479999999999996
2023-04-29T08:54:24.000Z,2.832
2023-04-29T08:55:24.000Z,2.2184
2023-04-29T08:56:24.000Z,2.1712
2023-04-29T08:57:25.000Z,1.1327999999999998
2023-04-29T08:58:25.000Z,1.7935999999999996
2023-04-29T08:59:25.000Z,1.2272
2023-04-29T09:00:26.000Z,1.8408
2023-04-29T09:01:26.000Z,2.1712
2023-04-29T09:02:26.000Z,3.2095999999999996
2023-04-29T09:03:26.000Z,3.9175999999999997
2023-04-29T09:04:27.000Z,3.7287999999999992
2023-04-29T09:05:27.000Z,2.7375999999999996
2023-04-29T09:06:27.000Z,3.8703999999999996
2023-04-29T09:07:28.000Z,3.54
2023-04-29T09:08:28.000Z,1.7464
2023-04-29T09:09:28.000Z,4.2951999999999995
2023-04-29T09:10:28.000Z,5.333599999999999
2023-04-29T09:11:29.000Z,5.144799999999999
2023-04-29T09:12:29.000Z,1.18
2023-04-29T09:13:29.000Z,5.475199999999999
2023-04-29T09:14:30.000Z,2.9736
2023-04-29T09:15:30.000Z,2.0296
2023-04-29T09:16:30.000Z,3.4928
2023-04-29T09:17:31.000Z,0.8967999999999998
2023-04-29T09:18:31.000Z,2.6903999999999995
2023-04-29T09:19:31.000Z,4.3424
2023-04-29T09:20:31.000Z,0.9911999999999999
2023-04-29T09:21:32.000Z,0.6136
2023-04-29T09:22:32.000Z,1.5576
2023-04-29T09:23:32.000Z,1.8408
2023-04-29T09:24:33.000Z,5.2863999999999995
2023-04-29T09:25:33.000Z,4.3424
2023-04-29T09:26:33.000Z,7.2688
2023-04-29T09:27:34.000Z,4.3424
2023-04-29T09:28:34.000Z,4.9088
2023-04-29T09:29:34.000Z,6.2304
2023-04-29T09:30:34.000Z,5.664
2023-04-29T09:31:35.000Z,3.6344
2023-04-29T09:32:35.000Z,3.54
2023-04-29T09:33:35.000Z,6.3248
2023-04-29T09:34:36.000Z,5.9944
2023-04-29T09:35:36.000Z,2.7847999999999997
2023-04-29T09:36:36.000Z,5.003199999999999
2023-04-29T09:37:36.000Z,6.9384
2023-04-29T09:38:37.000Z,9.675999999999998
2023-04-29T09:39:37.000Z,3.9175999999999997
2023-04-29T09:40:37.000Z,4.1064
2023-04-29T09:41:38.000Z,3.6344
2023-04-29T09:42:38.000Z,7.4575999999999985
2023-04-29T09:43:38.000Z,4.012
2023-04-29T09:44:39.000Z,2.5488
2023-04-29T09:45:39.000Z,3.4928
2023-04-29T09:46:39.000Z,5.427999999999999
2023-04-29T09:47:39.000Z,4.484
2023-04-29T09:48:40.000Z,4.578399999999999
2023-04-29T09:49:40.000Z,3.8232
2023-04-29T09:50:40.000Z,5.8999999999999995
2023-04-29T09:51:41.000Z,6.1831999999999985
2023-04-29T09:52:41.000Z,4.3424
2023-04-29T09:53:41.000Z,4.7672
2023-04-29T09:54:41.000Z,4.7672
2023-04-29T09:55:42.000Z,3.4928
2023-04-29T09:56:42.000Z,5.2392
2023-04-29T09:57:42.000Z,2.3127999999999997
2023-04-29T09:58:43.000Z,6.2776
2023-04-29T09:59:43.000Z,5.569599999999999
2023-04-29T10:00:43.000Z,6.419199999999999
2023-04-29T10:01:43.000Z,8.1656
2023-04-29T10:02:44.000Z,4.247999999999999
2023-04-29T10:03:44.000Z,5.9944
2023-04-29T10:04:44.000Z,4.8144
2023-04-29T10:05:45.000Z,5.475199999999999
2023-04-29T10:06:45.000Z,5.191999999999999
2023-04-29T10:07:45.000Z,5.191999999999999
2023-04-29T10:08:46.000Z,4.153599999999999
2023-04-29T10:09:46.000Z,4.484
2023-04-29T10:10:46.000Z,7.740799999999999
2023-04-29T10:11:46.000Z,8.1184
2023-04-29T10:12:47.000Z,5.191999999999999
2023-04-29T10:13:52.000Z,8.4488
2023-04-29T10:14:57.000Z,2.9736
2023-04-29T10:15:58.000Z,2.832
2023-04-29T10:16:58.000Z,5.427999999999999
2023-04-29T10:17:58.000Z,2.6431999999999998
2023-04-29T10:18:59.000Z,3.3040000000000003
2023-04-29T10:19:59.000Z,4.72
2023-04-29T10:20:59.000Z,3.3983999999999996
2023-04-29T10:21:59.000Z,6.6080000000000005
2023-04-29T10:23:00.000Z,4.012
2023-04-29T10:24:05.000Z,3.1624
2023-04-29T10:25:05.000Z,4.2951999999999995
2023-04-29T10:26:06.000Z,3.3040000000000003
2023-04-29T10:27:06.000Z,4.2008
2023-04-29T10:28:11.000Z,3.7759999999999994
2023-04-29T10:29:17.000Z,5.475199999999999
2023-04-29T10:30:17.000Z,6.1831999999999985
2023-04-29T10:31:17.000Z,5.2392
2023-04-29T10:32:18.000Z,3.9175999999999997
2023-04-29T10:33:18.000Z,6.796799999999999
2023-04-29T10:34:18.000Z,5.475199999999999
2023-04-29T10:35:19.000Z,4.0592
2023-04-29T10:36:19.000Z,6.1831999999999985
2023-04-29T10:37:19.000Z,5.664
2023-04-29T10:38:20.000Z,4.484
2023-04-29T10:39:20.000Z,2.8792
2023-04-29T10:40:20.000Z,5.475199999999999
2023-04-29T10:41:21.000Z,4.6255999999999995
2023-04-29T10:42:21.000Z,3.4928
2023-04-29T10:43:21.000Z,1.5576
2023-04-29T10:44:21.000Z,3.1152
2023-04-29T10:45:22.000Z,3.7287999999999992
2023-04-29T10:46:22.000Z,3.3040000000000003
2023-04-29T10:47:22.000Z,0.0